Time;durP1;ratioP1;P1;durP2;ratioP2;P2;SDS_P1;SDS_P2;PMS_P1;PMS_P2;Temp;Humidity;BMP_temperature;BMP_pressure;BME280_temperature;BME280_humidity;BME280_pressure;Samples;Min_cycle;Max_cycle;Signal;HPM_P1;HPM_P2
2023/06/07 00:00:23;;;;;;;0.82;0.82;;;9.40;99.90;;;;;;5070673;28;20066;-74
2023/06/07 00:02:48;;;;;;;;;;;9.40;99.90;;;;;;5072055;28;20072;-74
2023/06/07 00:05:14;;;;;;;0.40;0.40;;;9.40;99.90;;;;;;5091043;28;19963;-74
2023/06/07 00:07:41;;;;;;;0.50;0.50;;;9.50;99.90;;;;;;5091259;28;20063;-74
2023/06/07 00:10:07;;;;;;;0.47;0.47;;;9.40;99.90;;;;;;5074167;28;20374;-74
2023/06/07 00:12:33;;;;;;;0.30;0.30;;;9.40;99.90;;;;;;5057743;28;20052;-75
2023/06/07 00:15:02;;;;;;;0.40;0.40;;;9.40;99.90;;;;;;5091110;28;20054;-74
2023/06/07 00:17:28;;;;;;;0.40;0.40;;;9.40;99.90;;;;;;5075150;28;20584;-74
2023/06/07 00:19:56;;;;;;;0.50;0.50;;;9.40;99.90;;;;;;5091858;28;20159;-74
2023/06/07 00:22:22;;;;;;;0.63;0.63;;;9.40;99.90;;;;;;5091758;28;20540;-74
2023/06/07 00:24:51;;;;;;;0.50;0.50;;;9.30;99.90;;;;;;5090981;28;20166;-74
2023/06/07 00:27:17;;;;;;;0.50;0.50;;;9.20;99.90;;;;;;5091114;28;20040;-74
2023/06/07 00:29:43;;;;;;;0.57;0.57;;;9.20;99.90;;;;;;5125554;27;20048;-74
2023/06/07 00:32:08;;;;;;;0.52;0.52;;;9.20;99.90;;;;;;5073727;28;20505;-74
2023/06/07 00:34:34;;;;;;;0.40;0.40;;;9.10;99.90;;;;;;5125275;27;20048;-74
2023/06/07 00:37:00;;;;;;;0.50;0.50;;;9.10;99.90;;;;;;5074122;28;20047;-74
2023/06/07 00:39:25;;;;;;;0.50;0.50;;;9.10;99.90;;;;;;5058033;28;20378;-74
2023/06/07 00:41:52;;;;;;;0.50;0.50;;;9.10;99.90;;;;;;5091033;28;20047;-74
2023/06/07 00:44:18;;;;;;;0.40;0.40;;;9.10;99.90;;;;;;5073157;28;20476;-74
2023/06/07 00:46:44;;;;;;;0.50;0.50;;;9.10;99.90;;;;;;5073663;28;20052;-74
2023/06/07 00:49:16;;;;;;;0.50;0.50;;;9.10;99.90;;;;;;5073262;28;20036;-74
2023/06/07 00:51:42;;;;;;;0.55;0.55;;;9.00;99.90;;;;;;5090894;28;20425;-74
2023/06/07 00:54:08;;;;;;;0.77;0.77;;;9.10;99.90;;;;;;5073428;28;20047;-74
2023/06/07 00:56:35;;;;;;;0.50;0.50;;;9.00;99.90;;;;;;5090542;28;20057;-74
2023/06/07 00:59:03;;;;;;;0.50;0.50;;;8.90;99.90;;;;;;5073184;28;20042;-74
2023/06/07 01:01:29;;;;;;;0.60;0.60;;;8.90;99.90;;;;;;5090348;28;20036;-74
2023/06/07 01:03:55;;;;;;;0.50;0.50;;;8.90;99.90;;;;;;5073469;28;20040;-74
2023/06/07 01:06:22;;;;;;;;;;;9.00;99.90;;;;;;5090411;28;20036;-74
2023/06/07 01:08:50;;;;;;;0.35;0.35;;;9.00;99.90;;;;;;5073563;28;20419;-75
2023/06/07 01:11:20;;;;;;;0.50;0.50;;;9.00;99.90;;;;;;5089805;28;20101;-74
2023/06/07 01:13:47;;;;;;;0.30;0.30;;;9.00;99.90;;;;;;5089801;28;20046;-74
2023/06/07 01:16:13;;;;;;;0.40;0.40;;;9.00;99.90;;;;;;5089614;28;20413;-74
2023/06/07 01:18:42;;;;;;;0.50;0.50;;;9.00;99.90;;;;;;5090042;28;20044;-74
2023/06/07 01:21:13;;;;;;;0.40;0.40;;;8.90;99.90;;;;;;5073515;28;20473;-74
2023/06/07 01:23:40;;;;;;;0.40;0.40;;;9.00;99.90;;;;;;5090091;28;20126;-74
2023/06/07 01:26:06;;;;;;;0.52;0.52;;;9.00;99.90;;;;;;5089413;28;20078;-74
2023/06/07 01:28:37;;;;;;;;;;;9.00;99.90;;;;;;5124158;27;20044;-74
2023/06/07 01:31:03;;;;;;;0.50;0.50;;;9.10;99.90;;;;;;5089830;28;20262;-74
2023/06/07 01:33:30;;;;;;;;;;;9.20;99.90;;;;;;5073365;28;20043;-74
2023/06/07 01:35:57;;;;;;;0.50;0.50;;;9.20;99.90;;;;;;5089596;28;19967;-74
2023/06/07 01:38:26;;;;;;;0.40;0.40;;;9.30;99.90;;;;;;5056079;28;20487;-74
2023/06/07 01:40:53;;;;;;;0.50;0.50;;;9.30;99.90;;;;;;5072794;28;20044;-75
2023/06/07 01:43:21;;;;;;;0.60;0.60;;;9.40;99.90;;;;;;5089138;28;20040;-75
2023/06/07 01:45:48;;;;;;;0.60;0.60;;;9.50;99.90;;;;;;5089580;28;20048;-74
2023/06/07 01:48:15;;;;;;;0.50;0.50;;;9.50;99.90;;;;;;5088955;28;20115;-74
2023/06/07 01:50:41;;;;;;;0.43;0.43;;;9.50;99.90;;;;;;5089737;28;20059;-74
2023/06/07 01:53:06;;;;;;;0.40;0.40;;;9.50;99.90;;;;;;5089217;28;20032;-74
2023/06/07 01:55:32;;;;;;;0.40;0.40;;;9.50;99.90;;;;;;5072529;28;20393;-74
2023/06/07 01:58:21;;;;;;;0.40;0.40;;;9.60;99.90;;;;;;5089399;28;20043;-75
2023/06/07 02:00:59;;;;;;;0.60;0.60;;;9.60;99.90;;;;;;5089450;28;20052;-75
2023/06/07 02:03:41;;;;;;;0.40;0.40;;;9.60;99.90;;;;;;5089119;28;20618;-74
2023/06/07 02:06:11;;;;;;;0.50;0.50;;;9.60;99.90;;;;;;5089037;28;20393;-74
2023/06/07 02:08:48;;;;;;;0.50;0.50;;;9.60;99.90;;;;;;5089302;28;20062;-74
2023/06/07 02:11:16;;;;;;;0.60;0.60;;;9.60;99.90;;;;;;5088670;28;20083;-74
2023/06/07 02:13:43;;;;;;;0.40;0.40;;;9.70;99.90;;;;;;5089433;28;20460;-75
2023/06/07 02:16:10;;;;;;;0.50;0.50;;;9.80;99.90;;;;;;5071811;28;20054;-75
2023/06/07 02:18:42;;;;;;;0.50;0.50;;;9.80;99.90;;;;;;5088846;28;20081;-74
2023/06/07 02:21:09;;;;;;;0.40;0.40;;;9.80;99.90;;;;;;5072610;28;20378;-74
2023/06/07 02:23:35;;;;;;;0.60;0.60;;;9.80;99.90;;;;;;5089081;28;20044;-74
2023/06/07 02:26:01;;;;;;;;;;;9.90;99.90;;;;;;5088568;28;20040;-74
2023/06/07 02:28:27;;;;;;;0.45;0.45;;;10.00;99.90;;;;;;5088668;28;19967;-75
2023/06/07 02:30:55;;;;;;;0.40;0.40;;;10.00;99.90;;;;;;5122712;27;20523;-74
2023/06/07 02:33:24;;;;;;;0.32;0.32;;;10.00;99.90;;;;;;5088410;28;20083;-75
2023/06/07 02:35:50;;;;;;;0.40;0.40;;;10.00;99.90;;;;;;5088795;28;20118;-75
2023/06/07 02:38:15;;;;;;;0.40;0.40;;;10.00;99.90;;;;;;5088072;28;20102;-74
2023/06/07 02:40:41;;;;;;;0.40;0.40;;;10.00;99.90;;;;;;5071866;28;20090;-74
2023/06/07 02:43:07;;;;;;;0.60;0.60;;;10.00;99.90;;;;;;5088229;28;20044;-74
2023/06/07 02:45:33;;;;;;;0.50;0.50;;;10.00;99.90;;;;;;5088704;28;20064;-75
2023/06/07 02:47:59;;;;;;;0.82;0.80;;;10.10;99.90;;;;;;5088492;28;20044;-75
2023/06/07 02:50:25;;;;;;;0.50;0.50;;;10.10;99.90;;;;;;5088199;28;20397;-74
2023/06/07 02:52:51;;;;;;;;;;;10.20;99.90;;;;;;5072160;28;20040;-75
2023/06/07 02:55:17;;;;;;;0.47;0.47;;;10.00;99.90;;;;;;5071411;28;19919;-74
2023/06/07 02:57:43;;;;;;;1.15;0.82;;;10.00;99.90;;;;;;5071717;28;20582;-74
2023/06/07 03:00:13;;;;;;;0.43;0.43;;;10.00;99.90;;;;;;5087675;28;20052;-75
2023/06/07 03:02:39;;;;;;;0.30;0.30;;;10.00;99.90;;;;;;5087877;28;20100;-74
2023/06/07 03:05:06;;;;;;;0.50;0.50;;;10.10;99.90;;;;;;5087893;28;20039;-74
2023/06/07 03:07:34;;;;;;;0.35;0.35;;;10.10;99.90;;;;;;5087055;28;20085;-74
2023/06/07 03:10:00;;;;;;;0.50;0.50;;;10.10;99.90;;;;;;5070686;28;20047;-74
2023/06/07 03:12:26;;;;;;;;;;;10.10;99.90;;;;;;5087924;28;20054;-74
2023/06/07 03:14:52;;;;;;;0.40;0.40;;;10.20;99.90;;;;;;5088068;28;19920;-75
2023/06/07 03:17:17;;;;;;;0.40;0.40;;;10.30;99.90;;;;;;5054493;28;20052;-74
2023/06/07 03:19:44;;;;;;;0.50;0.50;;;10.30;99.90;;;;;;5088543;28;20555;-74
2023/06/07 03:22:09;;;;;;;0.50;0.50;;;10.30;99.90;;;;;;5072271;28;20381;-74
2023/06/07 03:24:38;;;;;;;0.40;0.40;;;10.10;99.90;;;;;;5088721;28;20051;-74
2023/06/07 03:27:05;;;;;;;0.30;0.30;;;10.50;99.90;;;;;;5078895;28;20162;-74
2023/06/07 03:29:31;;;;;;;0.43;0.43;;;10.50;99.90;;;;;;5070767;28;20054;-75
2023/06/07 03:31:57;;;;;;;;;;;10.60;99.90;;;;;;5072006;28;20401;-74
2023/06/07 03:34:23;;;;;;;0.52;0.52;;;10.60;99.90;;;;;;5087925;28;19923;-74
2023/06/07 03:36:49;;;;;;;0.20;0.20;;;10.60;99.90;;;;;;5071069;28;20543;-74
2023/06/07 03:39:14;;;;;;;0.40;0.40;;;10.60;99.90;;;;;;5074885;28;20087;-74
2023/06/07 03:41:40;;;;;;;0.30;0.30;;;10.60;99.90;;;;;;5092861;28;20070;-74
2023/06/07 03:44:06;;;;;;;0.32;0.32;;;10.70;99.90;;;;;;5092451;28;20035;-74
2023/06/07 03:46:31;;;;;;;0.40;0.40;;;10.80;99.90;;;;;;5074927;28;20047;-75
2023/06/07 03:48:57;;;;;;;0.30;0.30;;;10.80;99.90;;;;;;5074815;28;20077;-75
2023/06/07 03:51:23;;;;;;;0.40;0.40;;;10.90;99.90;;;;;;5075003;28;20047;-75
2023/06/07 03:53:49;;;;;;;0.40;0.40;;;10.90;99.90;;;;;;5091691;28;20040;-75
2023/06/07 03:56:15;;;;;;;0.40;0.40;;;11.00;99.90;;;;;;5091376;28;20040;-75
2023/06/07 03:58:40;;;;;;;0.30;0.30;;;11.00;99.90;;;;;;5091869;28;20043;-75
2023/06/07 04:01:06;;;;;;;0.50;0.50;;;11.10;99.90;;;;;;5091725;28;20035;-74
2023/06/07 04:03:32;;;;;;;0.25;0.25;;;11.10;99.90;;;;;;5091463;28;20044;-74
2023/06/07 04:05:58;;;;;;;0.30;0.30;;;11.20;99.90;;;;;;5075147;28;20439;-74
2023/06/07 04:08:24;;;;;;;0.40;0.40;;;11.20;99.90;;;;;;5074308;28;20050;-74
2023/06/07 04:10:50;;;;;;;0.40;0.40;;;11.30;99.90;;;;;;5091372;28;20079;-75
2023/06/07 04:13:16;;;;;;;0.63;0.63;;;11.30;99.90;;;;;;5091037;28;20051;-74
2023/06/07 04:15:42;;;;;;;0.50;0.50;;;11.30;99.90;;;;;;5091319;28;20048;-74
2023/06/07 04:18:08;;;;;;;0.40;0.40;;;11.40;99.90;;;;;;5091410;28;20082;-75
2023/06/07 04:20:34;;;;;;;0.40;0.40;;;11.40;99.90;;;;;;5090955;28;20079;-74
2023/06/07 04:23:00;;;;;;;0.73;0.65;;;11.40;99.90;;;;;;5091327;28;20036;-75
2023/06/07 04:25:32;;;;;;;0.30;0.30;;;11.50;99.90;;;;;;5054013;28;20040;-75
2023/06/07 04:28:01;;;;;;;0.40;0.40;;;11.50;99.90;;;;;;5054480;28;20142;-75
2023/06/07 04:30:40;;;;;;;0.47;0.47;;;11.60;99.90;;;;;;5086691;28;20083;-75
2023/06/07 04:33:12;;;;;;;0.30;0.30;;;11.70;99.90;;;;;;5091276;28;20055;-75
2023/06/07 04:35:41;;;;;;;0.30;0.30;;;11.70;99.90;;;;;;5091265;28;20050;-74
2023/06/07 04:38:12;;;;;;;0.30;0.30;;;11.80;99.90;;;;;;5075423;28;20440;-75
2023/06/07 04:40:41;;;;;;;0.35;0.35;;;11.80;99.90;;;;;;5090430;28;20082;-75
2023/06/07 04:43:08;;;;;;;0.32;0.32;;;11.80;99.90;;;;;;5091208;28;20097;-75
2023/06/07 04:45:36;;;;;;;0.30;0.30;;;11.80;99.90;;;;;;5090773;28;20101;-75
2023/06/07 04:48:04;;;;;;;0.32;0.32;;;11.80;99.90;;;;;;5074495;28;20044;-75
2023/06/07 04:50:31;;;;;;;0.60;0.60;;;11.80;99.90;;;;;;5090206;28;20485;-75
2023/06/07 04:53:00;;;;;;;;;;;11.80;99.90;;;;;;5104406;28;20247;-75
2023/06/07 04:55:29;;;;;;;0.40;0.40;;;11.80;99.90;;;;;;5090251;28;19919;-75
2023/06/07 04:57:55;;;;;;;0.40;0.40;;;11.90;99.90;;;;;;5091059;28;20048;-75
2023/06/07 05:00:26;;;;;;;0.35;0.35;;;11.90;99.90;;;;;;5091268;28;20397;-75
2023/06/07 05:02:53;;;;;;;0.60;0.60;;;12.00;99.90;;;;;;5090796;28;20044;-75
2023/06/07 05:05:20;;;;;;;0.65;0.65;;;12.10;99.90;;;;;;5090272;28;20081;-75
2023/06/07 05:07:46;;;;;;;0.60;0.60;;;12.10;99.90;;;;;;5091731;28;20036;-75
2023/06/07 05:10:13;;;;;;;0.40;0.40;;;12.10;99.90;;;;;;5073844;28;20052;-75
2023/06/07 05:12:38;;;;;;;0.50;0.50;;;12.10;99.90;;;;;;5090074;28;20044;-75
2023/06/07 05:15:05;;;;;;;0.43;0.43;;;12.20;99.90;;;;;;5073809;28;20044;-75
2023/06/07 05:17:32;;;;;;;0.30;0.30;;;12.20;99.90;;;;;;5056635;28;20044;-75
2023/06/07 05:19:57;;;;;;;0.30;0.30;;;12.20;99.90;;;;;;5090705;28;20048;-76
2023/06/07 05:22:23;;;;;;;0.63;0.50;;;12.20;99.90;;;;;;5056318;28;20040;-75
2023/06/07 05:24:50;;;;;;;0.20;0.20;;;12.20;99.90;;;;;;5090366;28;20047;-75
2023/06/07 05:27:16;;;;;;;0.55;0.55;;;12.20;99.90;;;;;;5073562;28;20039;-75
2023/06/07 05:29:41;;;;;;;;;;;12.40;99.90;;;;;;5073385;28;20048;-75
2023/06/07 05:32:08;;;;;;;1.58;0.55;;;12.40;99.90;;;;;;5090026;28;19943;-75
2023/06/07 05:34:35;;;;;;;0.30;0.30;;;12.50;99.90;;;;;;5089915;28;20080;-75
2023/06/07 05:37:04;;;;;;;0.30;0.30;;;12.60;99.90;;;;;;5073453;28;20073;-76
2023/06/07 05:39:30;;;;;;;0.40;0.40;;;12.70;99.90;;;;;;5072642;28;20110;-75
2023/06/07 05:41:55;;;;;;;0.55;0.40;;;12.90;99.90;;;;;;5089667;28;20062;-75
2023/06/07 05:44:21;;;;;;;0.60;0.60;;;12.90;99.90;;;;;;5072592;28;20068;-75
2023/06/07 05:46:47;;;;;;;0.40;0.40;;;12.90;99.90;;;;;;5089590;28;20100;-75
2023/06/07 05:49:12;;;;;;;0.30;0.30;;;12.90;99.90;;;;;;5074381;28;20055;-75
2023/06/07 05:51:38;;;;;;;0.30;0.30;;;12.80;99.90;;;;;;5081438;28;20050;-75
2023/06/07 05:54:06;;;;;;;0.40;0.40;;;12.80;99.90;;;;;;5099216;28;20096;-75
2023/06/07 05:56:32;;;;;;;0.30;0.30;;;12.90;99.90;;;;;;5072592;28;20481;-75
2023/06/07 05:58:58;;;;;;;0.30;0.30;;;13.30;99.90;;;;;;5089643;28;20131;-75
2023/06/07 06:01:24;;;;;;;0.40;0.40;;;13.00;99.90;;;;;;5087849;28;20583;-74
2023/06/07 06:03:49;;;;;;;;;;;13.10;99.90;;;;;;5089927;28;20035;-75
2023/06/07 06:06:17;;;;;;;0.35;0.35;;;13.10;99.90;;;;;;5072508;28;19920;-75
2023/06/07 06:08:44;;;;;;;0.20;0.20;;;13.10;99.90;;;;;;5088990;28;20048;-76
2023/06/07 06:11:11;;;;;;;0.50;0.43;;;13.20;99.90;;;;;;5072285;28;20048;-75
2023/06/07 06:13:41;;;;;;;0.90;0.47;;;13.20;99.90;;;;;;5071755;28;20081;-75
2023/06/07 06:16:07;;;;;;;0.40;0.40;;;13.20;99.90;;;;;;5071925;28;20493;-75
2023/06/07 06:18:32;;;;;;;0.40;0.40;;;13.30;99.90;;;;;;5072583;28;20051;-75
2023/06/07 06:20:58;;;;;;;0.38;0.38;;;13.40;99.90;;;;;;5089955;28;20180;-75
2023/06/07 06:23:24;;;;;;;;;;;13.30;99.90;;;;;;5072924;28;20042;-75
2023/06/07 06:25:50;;;;;;;0.40;0.40;;;13.30;99.90;;;;;;5089903;28;19916;-75
2023/06/07 06:28:16;;;;;;;;;;;13.40;99.90;;;;;;5123853;27;20040;-75
2023/06/07 06:30:45;;;;;;;0.28;0.28;;;13.50;99.90;;;;;;5088866;28;19926;-75
2023/06/07 06:33:11;;;;;;;0.20;0.20;;;13.50;99.90;;;;;;5089258;28;20525;-75
2023/06/07 06:35:37;;;;;;;0.43;0.43;;;13.60;99.90;;;;;;5122405;27;20047;-75
2023/06/07 06:38:03;;;;;;;0.30;0.30;;;13.70;99.90;;;;;;5089006;28;20473;-75
2023/06/07 06:40:29;;;;;;;0.57;0.57;;;13.70;99.90;;;;;;5088853;28;20127;-75
2023/06/07 06:42:54;;;;;;;;;;;13.80;99.90;;;;;;5089708;28;20036;-76
2023/06/07 06:45:20;;;;;;;0.20;0.20;;;13.90;99.90;;;;;;5072454;28;19920;-75
2023/06/07 06:47:46;;;;;;;0.30;0.30;;;13.90;99.90;;;;;;5071618;28;20079;-75
2023/06/07 06:50:12;;;;;;;;;;;14.10;99.90;;;;;;5088944;28;20044;-75
2023/06/07 06:52:42;;;;;;;0.30;0.30;;;14.10;99.90;;;;;;5088304;28;19919;-76
2023/06/07 06:55:08;;;;;;;0.50;0.50;;;14.30;99.90;;;;;;5071461;28;20075;-75
2023/06/07 06:57:35;;;;;;;0.30;0.30;;;13.70;99.90;;;;;;5088141;28;20059;-75
2023/06/07 07:00:11;;;;;;;0.93;0.93;;;14.20;99.90;;;;;;5071848;28;20131;-75
2023/06/07 07:02:37;;;;;;;0.30;0.30;;;14.60;99.90;;;;;;5088149;28;20044;-75
2023/06/07 07:05:05;;;;;;;0.38;0.38;;;15.10;99.90;;;;;;5071883;28;20039;-76
2023/06/07 07:07:34;;;;;;;0.20;0.20;;;15.40;99.90;;;;;;5071191;28;20044;-76
2023/06/07 07:09:59;;;;;;;0.55;0.45;;;15.60;99.90;;;;;;5088165;28;20055;-75
2023/06/07 07:12:25;;;;;;;0.30;0.30;;;15.80;99.90;;;;;;5087783;28;20054;-76
2023/06/07 07:14:51;;;;;;;0.30;0.30;;;15.70;99.90;;;;;;5088386;28;20044;-76
2023/06/07 07:17:17;;;;;;;;;;;15.60;99.90;;;;;;5088040;28;20143;-75
2023/06/07 07:19:43;;;;;;;0.57;0.57;;;15.60;99.90;;;;;;5071083;28;20330;-75
2023/06/07 07:22:08;;;;;;;;;;;15.40;99.90;;;;;;5071781;28;20036;-75
2023/06/07 07:24:34;;;;;;;0.40;0.40;;;15.20;99.90;;;;;;5087732;28;19919;-76
2023/06/07 07:27:00;;;;;;;;;;;15.00;99.90;;;;;;5085161;28;20052;-75
2023/06/07 07:29:26;;;;;;;1.13;1.13;;;14.80;99.90;;;;;;5068090;28;19916;-75
2023/06/07 07:31:51;;;;;;;0.50;0.50;;;14.70;99.90;;;;;;5068029;28;20047;-75
2023/06/07 07:34:17;;;;;;;;;;;14.60;99.90;;;;;;5060173;28;20080;-75
2023/06/07 07:36:44;;;;;;;0.20;0.20;;;14.70;99.90;;;;;;5088112;28;20289;-75
2023/06/07 07:39:15;;;;;;;0.30;0.30;;;14.90;99.90;;;;;;5071448;28;20046;-75
2023/06/07 07:41:41;;;;;;;0.30;0.30;;;14.90;99.90;;;;;;5088285;28;20040;-75
2023/06/07 07:44:07;;;;;;;0.50;0.50;;;15.10;99.90;;;;;;5088010;28;20089;-75
2023/06/07 07:46:33;;;;;;;;;;;15.50;99.90;;;;;;5071247;28;20047;-76
2023/06/07 07:48:59;;;;;;;0.32;0.32;;;15.80;99.90;;;;;;5071488;28;19924;-75
2023/06/07 07:51:24;;;;;;;0.30;0.30;;;16.20;99.90;;;;;;5088029;28;20135;-75
2023/06/07 07:53:53;;;;;;;;;;;16.60;99.90;;;;;;5087924;28;20393;-75
2023/06/07 07:56:21;;;;;;;1.38;0.82;;;16.80;99.90;;;;;;5087961;28;20238;-76
2023/06/07 07:58:48;;;;;;;0.75;0.75;;;16.50;99.90;;;;;;5087735;28;20058;-75
2023/06/07 08:01:16;;;;;;;0.15;0.15;;;16.10;99.90;;;;;;5087897;28;20199;-76
2023/06/07 08:03:42;;;;;;;6.65;0.73;;;15.90;99.90;;;;;;5087270;28;20120;-76
2023/06/07 08:06:08;;;;;;;;;;;15.80;99.90;;;;;;5088029;28;20139;-75
2023/06/07 08:08:34;;;;;;;0.52;0.52;;;15.80;99.90;;;;;;5071088;28;19924;-75
2023/06/07 08:11:00;;;;;;;0.25;0.25;;;15.70;99.90;;;;;;5088269;28;20054;-75
2023/06/07 08:13:26;;;;;;;;;;;15.70;99.90;;;;;;5071174;28;20075;-75
2023/06/07 08:15:52;;;;;;;0.60;0.60;;;15.60;99.90;;;;;;5121238;28;19966;-75
2023/06/07 08:18:17;;;;;;;;;;;15.50;99.90;;;;;;5087771;28;20052;-76
2023/06/07 08:20:43;;;;;;;0.20;0.20;;;15.70;99.90;;;;;;5121902;28;19963;-75
2023/06/07 08:23:09;;;;;;;;;;;15.90;99.90;;;;;;5087955;28;20043;-75
2023/06/07 08:25:35;;;;;;;0.52;0.52;;;16.10;99.90;;;;;;5090918;28;19919;-75
2023/06/07 08:28:00;;;;;;;2.72;1.77;;;16.00;99.90;;;;;;5125449;27;20055;-76
2023/06/07 08:30:26;;;;;;;;;;;15.90;99.90;;;;;;5126627;27;20413;-75
2023/06/07 08:32:52;;;;;;;0.20;0.20;;;15.90;99.90;;;;;;5090863;28;19958;-75
2023/06/07 08:35:17;;;;;;;0.38;0.38;;;15.90;99.90;;;;;;5125372;27;20075;-75
2023/06/07 08:37:43;;;;;;;;;;;16.00;99.90;;;;;;5091096;28;20502;-75
2023/06/07 08:40:09;;;;;;;0.25;0.25;;;16.10;99.90;;;;;;5091263;28;19924;-75
2023/06/07 08:42:38;;;;;;;0.30;0.30;;;16.20;99.90;;;;;;5073944;28;20047;-75
2023/06/07 08:45:04;;;;;;;0.40;0.40;;;16.20;99.90;;;;;;5074683;28;20035;-75
2023/06/07 08:47:33;;;;;;;0.52;0.52;;;16.10;99.90;;;;;;5074872;28;20040;-75
2023/06/07 08:50:00;;;;;;;1.08;1.08;;;16.10;99.90;;;;;;5091274;28;20474;-76
2023/06/07 08:52:26;;;;;;;0.43;0.43;;;15.90;99.90;;;;;;5091147;28;20132;-76
2023/06/07 08:54:58;;;;;;;0.80;0.80;;;15.90;99.90;;;;;;5073468;28;20036;-76
2023/06/07 08:57:25;;;;;;;1.15;0.50;;;15.90;99.90;;;;;;5090775;28;20583;-75
2023/06/07 08:59:51;;;;;;;0.50;0.50;;;15.90;99.90;;;;;;5073478;28;20044;-75
2023/06/07 09:02:17;;;;;;;;;;;15.90;99.90;;;;;;5091239;28;20806;-76
2023/06/07 09:04:43;;;;;;;2.90;1.13;;;16.10;99.90;;;;;;5090099;28;19920;-75
2023/06/07 09:07:09;;;;;;;0.30;0.30;;;16.10;99.90;;;;;;5073698;28;20044;-73
2023/06/07 09:09:36;;;;;;;0.35;0.35;;;16.10;99.90;;;;;;5090461;28;20366;-76
2023/06/07 09:12:02;;;;;;;0.30;0.30;;;16.20;99.90;;;;;;5073583;28;20040;-75
2023/06/07 09:14:31;;;;;;;0.63;0.63;;;16.20;99.90;;;;;;5090512;28;20409;-76
2023/06/07 09:16:59;;;;;;;1.52;1.42;;;16.30;99.90;;;;;;5072807;28;20087;-75
2023/06/07 09:19:39;;;;;;;0.52;0.52;;;16.50;99.90;;;;;;5090988;28;20079;-76
2023/06/07 09:22:14;;;;;;;0.38;0.38;;;16.70;99.90;;;;;;5073422;28;20047;-75
2023/06/07 09:24:40;;;;;;;0.35;0.35;;;16.90;99.90;;;;;;5090070;28;20044;-75
2023/06/07 09:27:08;;;;;;;0.63;0.63;;;17.00;99.90;;;;;;5090397;28;20501;-75
2023/06/07 09:29:43;;;;;;;1.20;1.20;;;17.00;99.90;;;;;;5106979;28;20120;-76
2023/06/07 09:32:25;;;;;;;0.30;0.30;;;16.90;99.90;;;;;;5090256;28;20050;-76
2023/06/07 09:34:54;;;;;;;0.28;0.28;;;16.70;99.90;;;;;;5089543;28;20036;-75
2023/06/07 09:37:21;;;;;;;0.32;0.32;;;16.80;99.90;;;;;;5073046;28;20040;-76
2023/06/07 09:39:52;;;;;;;0.45;0.45;;;16.80;99.90;;;;;;5089448;28;20036;-75
2023/06/07 09:42:18;;;;;;;0.30;0.30;;;16.90;99.90;;;;;;5089766;28;20043;-75
2023/06/07 09:44:44;;;;;;;;;;;17.00;99.90;;;;;;5089721;28;20044;-76
2023/06/07 09:47:23;;;;;;;0.40;0.40;;;17.00;99.90;;;;;;5107422;28;19920;-76
2023/06/07 09:49:54;;;;;;;0.45;0.45;;;17.00;99.90;;;;;;5089661;28;20323;-75
2023/06/07 09:52:20;;;;;;;0.50;0.50;;;17.00;99.90;;;;;;5073235;28;20148;-76
2023/06/07 09:54:46;;;;;;;;;;;17.10;99.90;;;;;;5056604;28;20524;-76
2023/06/07 09:57:23;;;;;;;0.50;0.50;;;17.10;99.90;;;;;;5090077;28;19920;-76
2023/06/07 09:59:58;;;;;;;0.50;0.43;;;17.10;99.90;;;;;;5089173;28;20491;-76
2023/06/07 10:02:25;;;;;;;0.85;0.85;;;17.10;99.90;;;;;;5089853;28;20032;-75
2023/06/07 10:04:52;;;;;;;0.40;0.40;;;17.10;99.90;;;;;;5088926;28;20040;-76
2023/06/07 10:07:21;;;;;;;2.38;0.55;;;17.10;99.90;;;;;;5072591;28;20401;-76
2023/06/07 10:09:58;;;;;;;0.47;0.47;;;17.10;99.90;;;;;;5071948;28;20109;-76
2023/06/07 10:12:27;;;;;;;0.57;0.38;;;17.30;99.90;;;;;;5072417;28;20039;-76
2023/06/07 10:14:54;;;;;;;0.22;0.22;;;17.20;99.90;;;;;;5072357;28;20052;-76
2023/06/07 10:17:25;;;;;;;0.45;0.45;;;17.30;99.90;;;;;;5089014;28;20063;-76
2023/06/07 10:19:58;;;;;;;0.40;0.40;;;17.40;99.90;;;;;;5089030;28;20544;-73
2023/06/07 10:22:28;;;;;;;0.50;0.50;;;17.50;99.90;;;;;;5089044;28;20072;-76
2023/06/07 10:25:10;;;;;;;0.45;0.45;;;17.40;99.90;;;;;;5071990;28;20032;-76
2023/06/07 10:27:44;;;;;;;0.88;0.88;;;17.50;99.90;;;;;;5089170;28;20062;-76
2023/06/07 10:30:13;;;;;;;0.93;0.93;;;17.60;99.90;;;;;;5088881;28;20544;-76
2023/06/07 10:32:39;;;;;;;0.30;0.30;;;17.60;99.90;;;;;;5090051;28;20051;-76
2023/06/07 10:35:10;;;;;;;0.28;0.28;;;17.50;99.90;;;;;;5072304;28;20086;-76
2023/06/07 10:37:37;;;;;;;0.35;0.35;;;17.50;99.90;;;;;;5071797;28;20043;-76
2023/06/07 10:40:09;;;;;;;0.32;0.32;;;17.50;99.90;;;;;;5054650;28;20552;-75
2023/06/07 10:42:43;;;;;;;0.20;0.20;;;17.50;99.90;;;;;;5071861;28;20035;-76
2023/06/07 10:45:14;;;;;;;0.50;0.50;;;17.60;99.90;;;;;;5088721;28;20496;-75
2023/06/07 10:47:41;;;;;;;0.68;0.50;;;17.70;99.90;;;;;;5088254;28;20080;-74
2023/06/07 10:50:07;;;;;;;0.40;0.40;;;17.50;99.90;;;;;;5088746;28;20043;-74
2023/06/07 10:52:32;;;;;;;;;;;17.70;99.90;;;;;;5089331;28;20048;-75
2023/06/07 10:54:58;;;;;;;0.20;0.20;;;17.60;99.90;;;;;;5054639;28;20389;-75
2023/06/07 10:57:31;;;;;;;;;;;17.60;99.90;;;;;;5088679;28;20126;-74
2023/06/07 11:00:30;;;;;;;0.25;0.25;;;17.80;99.90;;;;;;5088230;28;19920;-75
2023/06/07 11:03:04;;;;;;;0.28;0.28;;;18.00;99.90;;;;;;5122900;27;20051;-75
2023/06/07 11:05:58;;;;;;;0.40;0.40;;;18.30;99.90;;;;;;5096297;28;20425;-75
2023/06/07 11:08:24;;;;;;;0.63;0.63;;;18.40;99.90;;;;;;5072952;28;20032;-75
2023/06/07 11:10:50;;;;;;;0.32;0.32;;;18.40;99.90;;;;;;5122711;27;20048;-75
2023/06/07 11:13:15;;;;;;;;;;;18.40;99.90;;;;;;5123499;27;20051;-75
2023/06/07 11:15:41;;;;;;;0.30;0.30;;;18.40;99.90;;;;;;5105197;28;19962;-75
2023/06/07 11:18:08;;;;;;;;;;;18.50;99.90;;;;;;5071253;28;20152;-74
2023/06/07 11:20:40;;;;;;;0.38;0.38;;;18.60;99.90;;;;;;5088263;28;19955;-74
2023/06/07 11:23:22;;;;;;;2.63;0.75;;;18.60;99.90;;;;;;5087776;28;20515;-75
2023/06/07 11:25:51;;;;;;;0.52;0.45;;;18.70;99.90;;;;;;5088143;28;20047;-75
2023/06/07 11:28:23;;;;;;;1.90;0.85;;;18.70;99.90;;;;;;5072937;28;20401;-75
2023/06/07 11:30:51;;;;;;;0.40;0.40;;;18.70;99.90;;;;;;5088181;28;20039;-75
2023/06/07 11:33:18;;;;;;;0.17;0.17;;;18.80;99.90;;;;;;5122101;28;20054;-75
2023/06/07 11:35:43;;;;;;;0.52;0.47;;;18.80;99.90;;;;;;5071732;28;20059;-75
2023/06/07 11:38:09;;;;;;;;;;;18.70;99.90;;;;;;5055024;28;20078;-75
2023/06/07 11:40:36;;;;;;;0.60;0.60;;;18.70;99.90;;;;;;5088679;28;19916;-74
2023/06/07 11:43:02;;;;;;;0.38;0.38;;;18.80;99.90;;;;;;5087757;28;20123;-75
2023/06/07 11:45:31;;;;;;;0.25;0.25;;;18.80;99.90;;;;;;5088325;28;20087;-75
2023/06/07 11:48:00;;;;;;;0.45;0.45;;;18.90;99.90;;;;;;5054701;28;20516;-75
2023/06/07 11:50:26;;;;;;;0.20;0.20;;;19.10;99.90;;;;;;5088484;28;20449;-75
2023/06/07 11:52:55;;;;;;;0.30;0.30;;;19.20;99.90;;;;;;5087444;28;20055;-75
2023/06/07 11:55:21;;;;;;;0.50;0.50;;;19.10;99.90;;;;;;5087610;28;20602;-75
2023/06/07 11:57:52;;;;;;;0.70;0.70;;;19.30;99.90;;;;;;5054140;28;20079;-75
2023/06/07 12:00:23;;;;;;;0.30;0.30;;;19.50;99.90;;;;;;5091031;28;20043;-75
2023/06/07 12:02:50;;;;;;;0.35;0.35;;;19.50;99.90;;;;;;5091509;28;20392;-75
2023/06/07 12:05:17;;;;;;;0.52;0.47;;;19.40;99.90;;;;;;5091541;28;20036;-76
2023/06/07 12:07:43;;;;;;;0.50;0.50;;;19.30;99.90;;;;;;5058994;28;20040;-75
2023/06/07 12:10:13;;;;;;;0.40;0.30;;;19.30;99.90;;;;;;5092390;28;20047;-75
2023/06/07 12:12:39;;;;;;;1.15;1.13;;;19.30;99.90;;;;;;5076048;28;20389;-76
2023/06/07 12:15:05;;;;;;;0.57;0.57;;;19.20;99.90;;;;;;5091475;28;20055;-75
2023/06/07 12:17:35;;;;;;;0.30;0.30;;;19.20;99.90;;;;;;5091458;28;20052;-76
2023/06/07 12:20:12;;;;;;;0.65;0.65;;;19.20;99.90;;;;;;5091392;28;20122;-76
2023/06/07 12:22:39;;;;;;;0.40;0.40;;;19.40;99.90;;;;;;5092002;28;20466;-76
2023/06/07 12:25:09;;;;;;;0.20;0.20;;;19.50;99.90;;;;;;5093276;28;20481;-76
2023/06/07 12:27:37;;;;;;;0.25;0.25;;;19.50;99.90;;;;;;5091720;28;20617;-76
2023/06/07 12:30:08;;;;;;;0.30;0.30;;;19.40;99.90;;;;;;5075462;28;20044;-75
2023/06/07 12:32:33;;;;;;;0.45;0.45;;;19.40;99.90;;;;;;5091887;28;20048;-76
2023/06/07 12:35:05;;;;;;;0.30;0.30;;;19.60;99.90;;;;;;5125523;27;20051;-76
2023/06/07 12:37:37;;;;;;;0.55;0.55;;;19.80;99.90;;;;;;5091329;28;20362;-75
2023/06/07 12:40:07;;;;;;;0.25;0.25;;;19.90;99.90;;;;;;5091137;28;20097;-75
2023/06/07 12:42:40;;;;;;;1.00;0.88;;;20.00;99.90;;;;;;5074760;28;20105;-76
2023/06/07 12:45:07;;;;;;;0.50;0.40;;;19.90;99.90;;;;;;5090916;28;20054;-76
2023/06/07 12:47:33;;;;;;;0.20;0.20;;;19.90;99.90;;;;;;5091247;28;20055;-76
2023/06/07 12:49:59;;;;;;;1.15;0.65;;;20.10;99.90;;;;;;5073622;28;20577;-76
2023/06/07 12:52:25;;;;;;;0.30;0.30;;;20.20;99.90;;;;;;5107701;28;20048;-76
2023/06/07 12:54:50;;;;;;;0.40;0.40;;;20.30;99.90;;;;;;5124958;27;20096;-76
2023/06/07 12:57:17;;;;;;;0.50;0.50;;;20.30;99.90;;;;;;5090505;28;20051;-76
2023/06/07 12:59:43;;;;;;;0.20;0.20;;;20.30;99.90;;;;;;5057422;28;20089;-76